createdAt,value
2023-03-16T00:00:50.158Z,6.23
2023-03-16T00:03:22.624Z,6.38
2023-03-16T00:05:54.777Z,6.35
2023-03-16T00:08:27.239Z,6.67
2023-03-16T00:10:59.002Z,6.55
2023-03-16T00:13:31.050Z,6.33
2023-03-16T00:16:03.985Z,6.34
2023-03-16T00:18:35.611Z,6.17
2023-03-16T00:21:07.227Z,6.09
2023-03-16T00:23:38.851Z,5.56
2023-03-16T00:26:10.508Z,5.85
2023-03-16T00:28:42.059Z,6.24
2023-03-16T00:31:14.984Z,5.82
2023-03-16T00:33:46.871Z,5.58
2023-03-16T00:36:18.479Z,5.56
2023-03-16T00:38:50.043Z,5.41
2023-03-16T00:41:21.937Z,5.32
2023-03-16T00:43:53.628Z,5.46
2023-03-16T00:46:25.211Z,5.41
2023-03-16T00:48:56.837Z,5.11
2023-03-16T00:51:28.523Z,5.11
2023-03-16T00:54:00.108Z,5.21
2023-03-16T00:56:31.668Z,5.41
2023-03-16T00:59:03.309Z,5.23
2023-03-16T01:01:35.002Z,5.32
2023-03-16T01:04:06.660Z,5.29
2023-03-16T01:06:39.913Z,4.75
2023-03-16T01:09:11.935Z,4.83
2023-03-16T01:11:43.503Z,5.29
2023-03-16T01:14:15.083Z,5.43
2023-03-16T01:16:47.062Z,5.73
2023-03-16T01:19:18.699Z,5.70
2023-03-16T01:21:50.287Z,6.00
2023-03-16T01:24:22.134Z,6.08
2023-03-16T01:26:54.000Z,5.61
2023-03-16T01:29:25.893Z,5.68
2023-03-16T01:32:00.046Z,5.31
2023-03-16T01:34:32.479Z,5.69
2023-03-16T01:37:04.634Z,5.55
2023-03-16T01:39:56.447Z,5.21
2023-03-16T01:42:28.190Z,5.39
2023-03-16T01:45:01.159Z,5.14
2023-03-16T01:47:37.576Z,5.28
2023-03-16T01:50:10.894Z,5.36
2023-03-16T01:52:45.221Z,5.34
2023-03-16T01:55:18.592Z,5.32
2023-03-16T01:57:50.286Z,5.37
2023-03-16T02:00:22.186Z,5.16
2023-03-16T02:03:16.579Z,5.41
2023-03-16T02:06:12.642Z,5.23
2023-03-16T02:08:50.565Z,5.52
2023-03-16T02:11:23.423Z,5.14
2023-03-16T02:14:12.001Z,4.84
2023-03-16T02:16:43.711Z,4.81
2023-03-16T02:19:29.353Z,4.87
2023-03-16T02:22:05.788Z,4.91
2023-03-16T02:24:38.467Z,4.52
2023-03-16T02:27:25.893Z,4.48
2023-03-16T02:30:08.120Z,4.71
2023-03-16T02:32:50.560Z,4.75
2023-03-16T02:35:22.815Z,4.70
2023-03-16T02:37:55.330Z,4.78
2023-03-16T02:40:32.355Z,4.71
2023-03-16T02:43:18.537Z,4.66
2023-03-16T02:46:02.540Z,4.67
2023-03-16T02:49:09.969Z,5.02
2023-03-16T02:51:45.332Z,4.90
2023-03-16T02:54:17.577Z,4.88
2023-03-16T02:56:49.193Z,5.03
2023-03-16T02:59:21.481Z,5.25
2023-03-16T03:01:53.452Z,5.17
2023-03-16T03:04:25.120Z,5.07
2023-03-16T03:06:56.680Z,5.38
2023-03-16T03:09:28.322Z,5.08
2023-03-16T03:12:00.317Z,5.18
2023-03-16T03:14:31.913Z,5.15
2023-03-16T03:17:07.895Z,4.95
2023-03-16T03:19:39.545Z,5.13
2023-03-16T03:22:11.296Z,5.68
2023-03-16T03:24:43.066Z,5.30
2023-03-16T03:27:14.808Z,4.86
2023-03-16T03:29:47.463Z,4.68
2023-03-16T03:32:19.134Z,4.96
2023-03-16T03:34:51.271Z,4.86
2023-03-16T03:37:22.875Z,5.00
2023-03-16T03:39:54.634Z,4.84
2023-03-16T03:42:26.448Z,4.96
2023-03-16T03:44:58.206Z,4.50
2023-03-16T03:47:30.907Z,4.63
2023-03-16T03:50:03.481Z,4.44
2023-03-16T03:52:38.235Z,4.76
2023-03-16T03:55:10.770Z,4.70
2023-03-16T03:57:42.387Z,4.66
2023-03-16T04:00:14.420Z,4.61
2023-03-16T04:02:48.090Z,5.00
2023-03-16T04:05:29.703Z,4.88
2023-03-16T04:08:01.365Z,5.21
2023-03-16T04:10:33.177Z,4.73
2023-03-16T04:13:05.359Z,4.81
2023-03-16T04:15:38.583Z,4.55
2023-03-16T04:18:15.796Z,5.16
2023-03-16T04:20:48.394Z,4.68
2023-03-16T04:23:23.440Z,4.91
2023-03-16T04:25:55.655Z,5.00
2023-03-16T04:28:27.859Z,4.80
2023-03-16T04:31:05.213Z,5.15
2023-03-16T04:33:41.002Z,5.01
2023-03-16T04:36:12.698Z,5.19
2023-03-16T04:38:45.100Z,4.83
2023-03-16T04:41:18.392Z,5.10
2023-03-16T04:43:59.007Z,4.89
2023-03-16T04:46:30.886Z,4.88
2023-03-16T04:49:06.152Z,4.67
2023-03-16T04:51:37.995Z,4.52
2023-03-16T04:54:13.230Z,4.63
2023-03-16T04:56:47.643Z,4.56
2023-03-16T04:59:32.401Z,4.47
2023-03-16T05:02:18.682Z,4.68
2023-03-16T05:04:50.395Z,4.34
2023-03-16T05:07:22.660Z,4.60
2023-03-16T05:09:58.101Z,4.47
2023-03-16T05:12:29.898Z,4.27
2023-03-16T05:15:06.872Z,4.32
2023-03-16T05:17:44.528Z,4.61
2023-03-16T05:20:18.271Z,4.51
2023-03-16T05:22:55.609Z,4.65
2023-03-16T05:25:39.002Z,4.76
2023-03-16T05:28:12.014Z,4.40
2023-03-16T05:30:51.951Z,4.44
2023-03-16T05:33:29.341Z,4.16
2023-03-16T05:36:07.888Z,4.28
2023-03-16T05:38:41.025Z,4.24
2023-03-16T05:41:15.604Z,4.12
2023-03-16T05:44:04.841Z,4.39
2023-03-16T05:46:51.191Z,4.47
2023-03-16T05:49:22.839Z,4.54
2023-03-16T05:51:54.906Z,4.32
2023-03-16T05:54:27.182Z,4.73
2023-03-16T05:56:58.965Z,4.80
2023-03-16T05:59:31.560Z,4.86
2023-03-16T06:02:03.571Z,4.81
2023-03-16T06:04:36.209Z,5.20
2023-03-16T06:07:08.148Z,6.70
2023-03-16T06:09:39.757Z,7.73
2023-03-16T06:12:16.797Z,8.23
2023-03-16T06:14:49.044Z,6.99
2023-03-16T06:17:20.760Z,6.90
2023-03-16T06:19:52.648Z,6.92
2023-03-16T06:22:24.435Z,7.02
2023-03-16T06:24:56.154Z,6.91
2023-03-16T06:27:27.947Z,6.64
2023-03-16T06:30:14.897Z,6.48
2023-03-16T06:32:46.835Z,7.03
2023-03-16T06:35:19.572Z,6.94
2023-03-16T06:38:04.462Z,6.65
2023-03-16T06:40:54.726Z,6.74
2023-03-16T06:43:27.912Z,8.61
2023-03-16T06:45:59.977Z,9.87
2023-03-16T06:48:31.852Z,10.58
2023-03-16T06:51:03.797Z,12.15
2023-03-16T06:53:35.980Z,13.43
2023-03-16T06:56:07.863Z,12.87
2023-03-16T06:58:44.325Z,13.29
2023-03-16T07:01:16.072Z,12.27
2023-03-16T07:03:47.825Z,10.88
2023-03-16T07:06:25.057Z,10.39
2023-03-16T07:08:56.668Z,9.69
2023-03-16T07:11:29.077Z,9.22
2023-03-16T07:14:03.190Z,9.73
2023-03-16T07:16:36.924Z,12.79
2023-03-16T07:19:11.285Z,13.45
2023-03-16T07:21:42.944Z,14.29
2023-03-16T07:24:19.691Z,14.75
2023-03-16T07:26:51.319Z,13.00
2023-03-16T07:29:33.086Z,12.87
2023-03-16T07:32:07.655Z,15.29
2023-03-16T07:34:42.914Z,15.97
2023-03-16T07:37:17.136Z,15.69
2023-03-16T07:39:50.318Z,16.34
2023-03-16T07:42:23.675Z,17.14
2023-03-16T07:45:09.827Z,18.19
2023-03-16T07:47:41.648Z,20.10
2023-03-16T07:50:39.144Z,18.95
2023-03-16T07:53:12.311Z,18.67
2023-03-16T07:55:46.608Z,19.35
2023-03-16T07:58:18.519Z,18.45
2023-03-16T08:00:51.849Z,17.84
2023-03-16T08:03:25.613Z,19.05
2023-03-16T08:05:59.404Z,19.50
2023-03-16T08:08:32.321Z,20.16
2023-03-16T08:11:04.087Z,20.91
2023-03-16T08:13:46.921Z,20.01
2023-03-16T08:16:21.947Z,19.72
2023-03-16T08:18:57.980Z,18.00
2023-03-16T08:21:29.887Z,18.97
2023-03-16T08:24:01.548Z,17.96
2023-03-16T08:26:33.695Z,17.30
2023-03-16T08:29:05.500Z,16.05
2023-03-16T08:31:41.096Z,14.28
2023-03-16T08:34:19.349Z,14.30
2023-03-16T08:36:50.992Z,14.97
2023-03-16T08:39:22.707Z,15.13
2023-03-16T08:41:54.914Z,15.67
2023-03-16T08:44:33.917Z,15.11
2023-03-16T08:47:05.766Z,15.04
2023-03-16T08:49:39.540Z,14.94
2023-03-16T08:52:16.507Z,15.22
2023-03-16T08:55:01.903Z,15.25
2023-03-16T08:57:34.774Z,15.56
2023-03-16T09:00:08.840Z,15.53
2023-03-16T09:02:42.514Z,15.04
2023-03-16T09:05:16.263Z,15.27
2023-03-16T09:07:49.012Z,14.80
2023-03-16T09:10:21.653Z,14.60
2023-03-16T09:12:53.884Z,15.21
2023-03-16T09:15:25.439Z,15.69
2023-03-16T09:17:57.048Z,15.90
2023-03-16T09:20:30.173Z,15.56
2023-03-16T09:23:01.956Z,15.58
2023-03-16T09:25:33.577Z,14.94
2023-03-16T09:28:05.887Z,15.51
2023-03-16T09:30:37.537Z,15.89
2023-03-16T09:33:09.288Z,15.83
2023-03-16T09:35:40.961Z,14.80
2023-03-16T09:38:12.563Z,14.85
2023-03-16T09:40:47.722Z,15.42
2023-03-16T09:43:45.358Z,15.77
2023-03-16T09:46:36.295Z,16.64
2023-03-16T09:49:15.352Z,15.87
2023-03-16T09:52:12.428Z,16.87
2023-03-16T09:55:11.881Z,16.38
2023-03-16T09:57:45.831Z,16.39
2023-03-16T10:00:28.405Z,16.24
2023-03-16T10:03:28.244Z,17.38
2023-03-16T10:06:03.152Z,17.71
2023-03-16T10:08:51.175Z,18.12
2023-03-16T10:11:38.068Z,18.02
2023-03-16T10:14:09.633Z,17.50
2023-03-16T10:16:49.768Z,17.03
2023-03-16T10:19:49.567Z,15.00
2023-03-16T10:22:37.239Z,15.57
2023-03-16T10:25:27.277Z,16.61
2023-03-16T10:27:59.119Z,17.10
2023-03-16T10:30:36.651Z,17.44
2023-03-16T10:33:29.683Z,17.95
2023-03-16T10:36:25.611Z,17.74
2023-03-16T10:39:01.770Z,17.64
2023-03-16T10:41:36.506Z,17.85
2023-03-16T10:44:11.220Z,17.56
2023-03-16T10:46:58.430Z,15.63
2023-03-16T10:49:38.646Z,14.53
2023-03-16T10:52:34.857Z,14.48
2023-03-16T10:55:27.250Z,15.00
2023-03-16T10:57:59.120Z,14.59
2023-03-16T11:00:37.426Z,15.45
2023-03-16T11:03:30.359Z,14.85
2023-03-16T11:06:05.643Z,14.03
2023-03-16T11:08:39.174Z,13.73
2023-03-16T11:11:17.112Z,13.79
2023-03-16T11:13:49.243Z,13.16
2023-03-16T11:16:27.940Z,13.56
2023-03-16T11:19:25.713Z,14.13
2023-03-16T11:22:05.635Z,13.22
2023-03-16T11:24:46.388Z,13.09
2023-03-16T11:27:33.622Z,13.73
2023-03-16T11:30:26.757Z,13.14
2023-03-16T11:32:58.549Z,12.76
2023-03-16T11:35:38.433Z,13.19
2023-03-16T11:38:37.521Z,12.91
2023-03-16T11:41:13.342Z,13.26
2023-03-16T11:44:00.293Z,14.23
2023-03-16T11:46:42.279Z,15.08
2023-03-16T11:49:51.554Z,14.24
2023-03-16T11:52:39.932Z,14.54
2023-03-16T11:55:34.012Z,14.75
2023-03-16T11:58:30.978Z,14.11
2023-03-16T12:01:17.542Z,14.10
2023-03-16T12:04:12.274Z,13.65
2023-03-16T12:06:55.299Z,13.53
2023-03-16T12:10:05.544Z,13.77
2023-03-16T12:12:55.617Z,13.19
2023-03-16T12:16:46.283Z,13.05
2023-03-16T12:19:45.624Z,13.29
2023-03-16T12:22:20.829Z,13.13
2023-03-16T12:24:52.835Z,13.14
2023-03-16T12:27:31.672Z,13.06
2023-03-16T12:30:40.412Z,12.88
2023-03-16T12:33:33.430Z,12.95
2023-03-16T12:36:23.225Z,12.75
2023-03-16T12:39:07.122Z,12.75
2023-03-16T12:41:56.161Z,13.45
2023-03-16T12:44:56.790Z,13.21
2023-03-16T12:47:32.430Z,13.52
2023-03-16T12:50:11.344Z,13.71
2023-03-16T12:52:46.821Z,14.06
2023-03-16T12:55:20.675Z,13.73
2023-03-16T12:58:04.939Z,14.37
2023-03-16T13:00:40.335Z,14.67
2023-03-16T13:03:19.895Z,14.65
2023-03-16T13:05:56.034Z,14.72
2023-03-16T13:08:28.489Z,14.99
2023-03-16T13:11:11.890Z,16.29
2023-03-16T13:14:03.726Z,16.85
2023-03-16T13:16:37.358Z,16.78
2023-03-16T13:19:27.556Z,15.80
2023-03-16T13:22:24.153Z,15.06
2023-03-16T13:25:13.758Z,14.37
2023-03-16T13:27:53.503Z,13.96
2023-03-16T13:30:34.430Z,14.14
2023-03-16T13:33:19.659Z,13.50
2023-03-16T13:35:53.808Z,13.90
2023-03-16T13:38:27.882Z,14.42
2023-03-16T13:41:09.158Z,14.61
2023-03-16T13:43:44.174Z,14.14
2023-03-16T13:46:16.828Z,12.95
2023-03-16T13:48:49.240Z,12.01
2023-03-16T13:51:21.882Z,12.58
2023-03-16T13:53:53.681Z,12.92
2023-03-16T13:56:27.378Z,13.37
2023-03-16T13:58:59.496Z,13.32
2023-03-16T14:01:32.020Z,12.51
2023-03-16T14:04:11.576Z,12.68
2023-03-16T14:06:59.304Z,12.92
2023-03-16T14:09:35.162Z,11.94
2023-03-16T14:12:07.027Z,12.16
2023-03-16T14:14:40.259Z,11.93
2023-03-16T14:17:16.118Z,12.98
2023-03-16T14:20:00.728Z,11.95
2023-03-16T14:22:36.880Z,11.44
2023-03-16T14:25:20.478Z,11.47
2023-03-16T14:27:59.599Z,11.91
2023-03-16T14:30:31.548Z,11.42
2023-03-16T14:33:27.955Z,11.89
2023-03-16T14:36:11.373Z,11.66
2023-03-16T14:38:48.464Z,11.33
2023-03-16T14:41:30.741Z,12.02
2023-03-16T14:44:02.578Z,12.21
2023-03-16T14:46:39.216Z,13.03
2023-03-16T14:49:22.883Z,13.03
2023-03-16T14:52:02.728Z,13.11
2023-03-16T14:54:34.662Z,12.80
2023-03-16T14:57:06.810Z,12.46
2023-03-16T14:59:38.673Z,12.92
2023-03-16T15:02:23.044Z,12.28
2023-03-16T15:04:57.069Z,12.18
2023-03-16T15:07:32.723Z,12.41
2023-03-16T15:10:22.350Z,12.64
2023-03-16T15:12:54.024Z,13.34
2023-03-16T15:15:25.731Z,13.74
2023-03-16T15:17:57.360Z,13.28
2023-03-16T15:20:34.577Z,14.62
2023-03-16T15:23:06.268Z,15.98
2023-03-16T15:25:41.250Z,15.96
2023-03-16T15:28:24.720Z,17.53
2023-03-16T15:30:58.687Z,17.05
2023-03-16T15:33:31.072Z,18.45
2023-03-16T15:36:14.580Z,19.60
2023-03-16T15:38:49.214Z,18.39
2023-03-16T15:41:22.603Z,17.03
2023-03-16T15:43:54.241Z,16.42
2023-03-16T15:46:26.356Z,17.57
2023-03-16T15:48:57.996Z,16.27
2023-03-16T15:51:31.154Z,15.44
2023-03-16T15:54:06.635Z,15.35
2023-03-16T15:56:53.297Z,15.28
2023-03-16T15:59:31.413Z,15.32
2023-03-16T16:02:03.396Z,15.31
2023-03-16T16:04:35.034Z,15.72
2023-03-16T16:07:11.253Z,15.28
2023-03-16T16:09:42.927Z,15.22
2023-03-16T16:12:16.419Z,15.46
2023-03-16T16:14:48.084Z,15.66
2023-03-16T16:17:21.156Z,15.61
2023-03-16T16:19:54.690Z,15.17
2023-03-16T16:22:26.332Z,14.72
2023-03-16T16:24:57.899Z,14.84
2023-03-16T16:27:29.574Z,14.68
2023-03-16T16:30:01.194Z,14.67
2023-03-16T16:32:32.891Z,14.92
2023-03-16T16:35:13.412Z,14.87
2023-03-16T16:37:45.467Z,14.66
2023-03-16T16:40:23.452Z,13.63
2023-03-16T16:42:55.227Z,13.62
2023-03-16T16:45:27.653Z,14.04
2023-03-16T16:47:59.492Z,14.15
2023-03-16T16:50:31.065Z,14.28
2023-03-16T16:53:16.192Z,13.93
2023-03-16T16:55:47.922Z,14.30
2023-03-16T16:58:24.617Z,14.06
2023-03-16T17:00:58.320Z,14.25
2023-03-16T17:03:30.430Z,14.04
2023-03-16T17:06:02.355Z,13.69
2023-03-16T17:08:34.098Z,14.08
2023-03-16T17:11:05.890Z,14.29
2023-03-16T17:13:40.465Z,14.29
2023-03-16T17:16:16.777Z,14.32
2023-03-16T17:18:49.528Z,14.00
2023-03-16T17:21:24.186Z,14.04
2023-03-16T17:23:56.216Z,13.72
2023-03-16T17:26:39.816Z,13.52
2023-03-16T17:29:22.078Z,13.76
2023-03-16T17:31:54.072Z,13.51
2023-03-16T17:34:29.062Z,13.21
2023-03-16T17:37:00.697Z,13.01
2023-03-16T17:39:33.679Z,13.01
2023-03-16T17:42:11.741Z,13.00
2023-03-16T17:44:47.199Z,12.47
2023-03-16T17:47:23.495Z,12.55
2023-03-16T17:49:55.369Z,12.61
2023-03-16T17:52:29.307Z,12.41
2023-03-16T17:55:00.970Z,12.29
2023-03-16T17:57:33.918Z,12.15
2023-03-16T18:00:20.523Z,11.95
2023-03-16T18:03:12.342Z,11.82
2023-03-16T18:05:45.205Z,11.67
2023-03-16T18:08:22.386Z,11.81
2023-03-16T18:11:00.910Z,11.62
2023-03-16T18:13:36.472Z,11.60
2023-03-16T18:16:12.886Z,11.14
2023-03-16T18:18:44.634Z,11.32
2023-03-16T18:21:22.183Z,11.29
2023-03-16T18:23:54.163Z,11.20
2023-03-16T18:26:25.884Z,10.87
2023-03-16T18:28:57.503Z,10.73
2023-03-16T18:31:29.645Z,10.85
2023-03-16T18:34:05.738Z,10.71
2023-03-16T18:36:38.073Z,10.87
2023-03-16T18:39:19.323Z,10.82
2023-03-16T18:41:50.985Z,10.54
2023-03-16T18:44:25.172Z,10.59
2023-03-16T18:47:02.631Z,10.96
2023-03-16T18:49:36.638Z,10.98
2023-03-16T18:52:19.520Z,10.69
2023-03-16T18:54:51.872Z,10.55
2023-03-16T18:57:27.236Z,10.22
2023-03-16T18:59:58.845Z,10.30
2023-03-16T19:02:38.928Z,10.09
2023-03-16T19:05:20.710Z,10.45
2023-03-16T19:07:52.989Z,10.41
2023-03-16T19:10:34.671Z,10.08
2023-03-16T19:13:16.260Z,10.13
2023-03-16T19:15:49.691Z,10.38
2023-03-16T19:18:21.340Z,10.08
2023-03-16T19:20:55.112Z,10.25
2023-03-16T19:23:35.135Z,10.46
2023-03-16T19:26:07.835Z,10.14
2023-03-16T19:28:43.757Z,9.70
2023-03-16T19:31:26.641Z,9.77
2023-03-16T19:33:58.565Z,9.83
2023-03-16T19:36:32.324Z,9.98
2023-03-16T19:39:04.273Z,9.83
2023-03-16T19:41:38.061Z,10.12
2023-03-16T19:44:26.762Z,10.03
2023-03-16T19:46:58.625Z,9.80
2023-03-16T19:49:30.709Z,9.44
2023-03-16T19:52:02.544Z,9.37
2023-03-16T19:54:34.253Z,9.91
2023-03-16T19:57:16.837Z,9.64
2023-03-16T19:59:55.148Z,9.64
2023-03-16T20:02:35.489Z,9.54
2023-03-16T20:05:07.839Z,9.60
2023-03-16T20:07:39.678Z,9.56
2023-03-16T20:10:22.047Z,9.63
2023-03-16T20:13:00.194Z,9.46
2023-03-16T20:15:33.466Z,9.48
2023-03-16T20:18:12.411Z,9.40
2023-03-16T20:20:44.549Z,9.35
2023-03-16T20:23:29.007Z,9.49
2023-03-16T20:26:02.652Z,9.03
2023-03-16T20:28:37.059Z,9.12
2023-03-16T20:31:18.720Z,9.09
2023-03-16T20:33:52.482Z,9.08
2023-03-16T20:36:26.162Z,9.29
2023-03-16T20:38:58.133Z,9.37
2023-03-16T20:41:31.518Z,9.20
2023-03-16T20:44:03.550Z,9.29
2023-03-16T20:46:35.590Z,9.45
2023-03-16T20:49:36.480Z,9.44
2023-03-16T20:52:28.253Z,9.28
2023-03-16T20:55:01.213Z,9.09
2023-03-16T20:57:33.090Z,8.97
2023-03-16T21:00:17.641Z,8.65
2023-03-16T21:02:49.350Z,8.66
2023-03-16T21:05:22.041Z,9.02
2023-03-16T21:07:54.167Z,8.84
2023-03-16T21:10:25.854Z,8.70
2023-03-16T21:12:57.811Z,8.61
2023-03-16T21:15:31.825Z,8.36
2023-03-16T21:18:06.691Z,8.35
2023-03-16T21:20:38.383Z,8.76
2023-03-16T21:23:15.070Z,9.03
2023-03-16T21:25:56.555Z,8.94
2023-03-16T21:28:32.990Z,8.83
2023-03-16T21:31:05.222Z,8.70
2023-03-16T21:33:40.349Z,8.86
2023-03-16T21:36:21.940Z,8.77
2023-03-16T21:38:55.021Z,8.62
2023-03-16T21:41:26.600Z,8.89
2023-03-16T21:43:58.187Z,8.74
2023-03-16T21:46:30.143Z,8.68
2023-03-16T21:49:03.660Z,8.70
2023-03-16T21:51:36.327Z,8.42
2023-03-16T21:54:13.269Z,8.71
2023-03-16T21:56:46.126Z,8.92
2023-03-16T21:59:17.712Z,9.08
2023-03-16T22:02:01.161Z,9.26
2023-03-16T22:04:33.817Z,9.17
2023-03-16T22:07:11.086Z,9.21
2023-03-16T22:09:43.574Z,9.22
2023-03-16T22:12:15.433Z,9.01
2023-03-16T22:14:46.980Z,9.07
2023-03-16T22:17:22.519Z,8.79
2023-03-16T22:19:54.163Z,8.55
2023-03-16T22:22:33.451Z,8.31
2023-03-16T22:25:14.864Z,8.18
2023-03-16T22:27:46.525Z,8.48
2023-03-16T22:30:25.698Z,8.57
2023-03-16T22:33:00.584Z,8.84
2023-03-16T22:35:38.709Z,8.71
2023-03-16T22:38:14.334Z,8.37
2023-03-16T22:40:45.912Z,8.58
2023-03-16T22:43:22.558Z,8.84
2023-03-16T22:45:54.132Z,8.57
2023-03-16T22:48:28.751Z,8.56
2023-03-16T22:51:04.346Z,8.96
2023-03-16T22:53:41.226Z,9.13
2023-03-16T22:56:12.965Z,8.62
2023-03-16T22:59:01.983Z,8.84
2023-03-16T23:01:39.942Z,8.64
2023-03-16T23:04:17.362Z,8.10
2023-03-16T23:06:52.371Z,8.69
2023-03-16T23:09:25.267Z,8.61
2023-03-16T23:11:57.332Z,8.64
2023-03-16T23:14:34.666Z,8.87
2023-03-16T23:17:24.867Z,8.75
2023-03-16T23:19:56.512Z,8.79
2023-03-16T23:22:28.252Z,8.58
2023-03-16T23:25:00.205Z,8.40
2023-03-16T23:27:31.973Z,8.30
2023-03-16T23:30:18.747Z,8.32
2023-03-16T23:32:53.248Z,8.38
2023-03-16T23:35:28.259Z,8.50
2023-03-16T23:38:00.426Z,8.56
2023-03-16T23:40:36.868Z,8.43
2023-03-16T23:43:09.008Z,8.30
2023-03-16T23:45:44.989Z,8.01
2023-03-16T23:48:20.572Z,8.54
2023-03-16T23:50:55.553Z,8.33
2023-03-16T23:53:27.232Z,7.79
2023-03-16T23:55:59.125Z,8.20
2023-03-16T23:58:31.241Z,8.67
